Airfield :







YOU CAN JOIN US ON...

 
LOGIN :

Register | Disclaimer

   EN    FR    IT 

 









Legend :    VFR   Marginal VFR   IFR   Intensive IFR   Very Intensive IFR
Visi :
Ceiling :
>= 8 km
>= 3000ft
5 to 8 km
1000 to 3000 ft
1500m to 5 km
500 to 1000 ft
800 to 1500m
200 to 500 ft
< 800m
< 200 ft
Symbols :   Thunderstorms  Fog  Heavy snow  Heavy precipitations  Wind > 20 kt






- Airport Elevation : 271 ft


KBAF - Barnes Municipal

CURRENT METAR :
  • 200253Z AUTO 32008KT 10SM CLR M03/M13 A3036 RMK AO2 SLP286 T10281133 53022

EXPIRED METARs :
  • 200153Z 31014G27KT 10SM CLR M02/M13 A3034 RMK AO2 PK WND 32027/0152 SLP279 T10221133
  • 200053Z 33006KT 10SM CLR M02/M13 A3031 RMK AO2 SLP270 T10171128

TAF KBAF
Valid from the 20 at 00:00 until the 21 at 00:00 UTC


192333Z 2000/2024 30010G17KT P6SM FEW120
FM200200 31008KT P6SM FEW120
FM200800 30005KT P6SM BKN050
FM201500 31010G17KT P6SM OVC050



MET'MAP, your aeronautical weather chart ! - Copyright ORBIFLY December 2007 - Disclaimer

ORBIFLY MET'MAP TEAM :

Programming & Development : Alexandra Zaïnal
Concept & original design : Baudouin d'Aumeries
Assistance for programming : Marc-Olivier Méhu
Technical & hardware support : Manuel Goepfert

Contact : metmap@orbifly.com




SOURCES & CREDITS :

   NOAA